Weather History for Farmingdale, NY

Change the Weather History Date:

Monday, October 29, 2012

  Actual Average Record
Temperature  
Mean Temperature 58 °F -  
Max Temperature 64 °F 57 °F 77 °F (1996)
Min Temperature 51 °F 42 °F 33 °F (2000)
Degree Days  
Heating Degree Days 8    
Growing Degree Days 8 (Base 50)    
Moisture  
Dew Point 54 °F    
Average Humidity 92    
Maximum Humidity 100    
Minimum Humidity 75    
Precipitation  
Precipitation 0.80 in - - ()
Sea Level Pressure  
Sea Level Pressure 29.06 in    
Wind  
Wind Speed 27 mph (NE)    
Max Wind Speed 45 mph    
Max Gust Speed 71 mph    
Visibility 3 miles    
Events Rain    
Averages and records for this station are not official NWS values.
T = Trace of Precipitation, MM = Missing Value Source: NWS Daily Summary

Daily Weather History Graph

Daily Weather History Graph

Search for Another Location

Airport:

Trip Planner

Search our weather history database for the weather conditions in past years. The results will help you decide how hot, cold, wet, or windy it might be!

Date:

Astronomy

Oct. 29, 2012 Rise Set
Actual Time 7:21 AM EDT 5:53 PM EDT
Civil Twilight 6:52 AM EDT 6:21 PM EDT
Nautical Twilight 6:20 AM EDT 6:53 PM EDT
Astronomical Twilight 5:48 AM EDT 7:25 PM EDT
Moon 5:43 PM EDT (10/29) 7:09 AM EDT (10/29)
Length of Visible Light 11h 28m
Length of Day
10h 31m
Full, 100% of the Moon is Illuminated
Oct 29
Full
Oct 29
Full
Nov 6
Last Quarter
Nov 13
New
Nov 20
First Quarter

Hourly Weather History & Observations

Time (EDT) Temp. Dew Point Humidity Pressure Visibility Wind Dir Wind Speed Gust Speed Precip Events Conditions
12:53 AM 53.1 °F 48.9 °F 86% 29.60 in 10.0 mi NNE 23.0 mph 33.4 mph 0.00 in   Overcast
1:53 AM 52.0 °F 48.9 °F 89% 29.57 in 6.0 mi NNE 18.4 mph 33.4 mph 0.00 in Rain Light Rain
2:06 AM 51.8 °F 48.2 °F 88% 29.57 in 5.0 mi NNE 19.6 mph 28.8 mph 0.00 in Rain Light Rain
2:28 AM 51.8 °F 50.0 °F 94% 29.56 in 4.0 mi NNE 18.4 mph 26.5 mph 0.01 in Rain Light Rain
2:38 AM 51.8 °F 50.0 °F 94% 29.54 in 5.0 mi NNE 19.6 mph 25.3 mph 0.01 in Rain Light Rain
2:53 AM 51.1 °F 50.0 °F 96% 29.54 in 4.0 mi NNE 19.6 mph 27.6 mph 0.01 in Rain Light Rain
3:53 AM 52.0 °F 50.0 °F 93% 29.49 in 4.0 mi NNE 19.6 mph 31.1 mph 0.00 in Rain Light Rain
4:35 AM 51.8 °F 51.8 °F 100% 29.44 in 3.0 mi NNE 20.7 mph 29.9 mph 0.01 in Rain Light Rain
4:46 AM 51.8 °F 51.8 °F 100% 29.44 in 4.0 mi NNE 21.9 mph 35.7 mph 0.01 in Rain Light Rain
4:53 AM 52.0 °F 51.1 °F 97% 29.44 in 4.0 mi NNE 25.3 mph 32.2 mph 0.01 in Rain Light Rain
5:53 AM 53.1 °F 51.1 °F 93% 29.39 in 5.0 mi NE 23.0 mph 31.1 mph 0.01 in Rain Light Rain
6:53 AM 54.0 °F 52.0 °F 93% 29.35 in 4.0 mi NNE 26.5 mph 47.2 mph 0.01 in Rain Light Rain
7:13 AM 53.6 °F 51.8 °F 94% 29.34 in 3.0 mi NE 24.2 mph 36.8 mph 0.01 in Rain Light Rain
7:50 AM 53.6 °F 51.8 °F 94% 29.32 in 1.8 mi NNE 31.1 mph 46.0 mph 0.03 in   Overcast
7:53 AM 54.0 °F 52.0 °F 93% 29.31 in 1.5 mi NNE 27.6 mph 46.0 mph 0.03 in   Overcast
8:17 AM 53.6 °F 51.8 °F 94% 29.28 in 2.5 mi NNE 27.6 mph 46.0 mph 0.01 in Rain Light Rain
8:22 AM 53.6 °F 51.8 °F 94% 29.28 in 3.0 mi NNE 29.9 mph 41.4 mph 0.02 in Rain Light Rain
8:32 AM 53.6 °F 51.8 °F 94% 29.27 in 2.5 mi NNE 25.3 mph 39.1 mph 0.03 in Rain Light Rain
8:53 AM 54.0 °F 52.0 °F 93% 29.25 in 2.0 mi NE 29.9 mph 43.7 mph 0.04 in   Overcast
9:32 AM 55.4 °F 53.6 °F 94% 29.22 in 1.8 mi NNE 26.5 mph 46.0 mph 0.02 in Rain Light Rain
9:46 AM 55.4 °F 53.6 °F 94% 29.20 in 1.2 mi NNE 28.8 mph 41.4 mph 0.03 in Rain Light Rain
9:53 AM 55.0 °F 53.1 °F 93% 29.20 in 1.5 mi NE 27.6 mph 41.4 mph 0.04 in Rain Light Rain
9:58 AM 55.4 °F 53.6 °F 94% 29.18 in 2.5 mi NNE 33.4 mph 47.2 mph 0.00 in Rain Light Rain
10:05 AM 55.4 °F 53.6 °F 94% 29.18 in 3.0 mi NE 29.9 mph 47.2 mph 0.00 in Rain Light Rain
10:13 AM 55.4 °F 53.6 °F 94% 29.17 in 1.8 mi NE 25.3 mph 43.7 mph 0.01 in Rain Rain
10:44 AM 55.4 °F 53.6 °F 94% 29.13 in 2.0 mi NNE 25.3 mph 46.0 mph 0.05 in Rain Light Rain
10:53 AM 55.9 °F 55.0 °F 97% 29.12 in 2.0 mi NE 26.5 mph 41.4 mph 0.06 in Rain Rain
11:05 AM 55.4 °F 55.4 °F 100% 29.11 in 1.8 mi NNE 26.5 mph 43.7 mph 0.02 in Rain Light Rain
11:30 AM 57.2 °F 55.4 °F 94% 29.08 in 1.5 mi NE 27.6 mph 41.4 mph 0.05 in Rain Light Rain
11:37 AM 57.2 °F 55.4 °F 94% 29.07 in 1.5 mi NE 27.6 mph 43.7 mph 0.06 in   Overcast
11:53 AM 57.0 °F 55.9 °F 96% 29.04 in 1.5 mi NE 29.9 mph 41.4 mph 0.08 in Rain Light Rain
12:01 PM 57.2 °F 55.4 °F 94% 29.02 in 2.5 mi NE 33.4 mph 49.5 mph 0.01 in Rain Light Rain
12:10 PM 57.2 °F 55.4 °F 94% 29.02 in 1.8 mi NE 25.3 mph 50.6 mph 0.02 in Rain Rain
12:19 PM 57.2 °F 55.4 °F 94% 29.01 in 2.0 mi NE 27.6 mph 48.3 mph 0.03 in Rain Light Rain
12:24 PM 57.2 °F 55.4 °F 94% 28.99 in 2.0 mi NE 29.9 mph 48.3 mph 0.04 in Rain Light Rain
12:28 PM 57.2 °F 55.4 °F 94% 28.97 in 1.5 mi NE 31.1 mph 47.2 mph 0.05 in Rain Rain
12:53 PM 57.9 °F 55.9 °F 93% 28.93 in 1.5 mi NE 35.7 mph 57.5 mph 0.08 in   Overcast
1:20 PM 59.0 °F 57.2 °F 94% 28.87 in 2.5 mi NE 39.1 mph 52.9 mph 0.04 in   Overcast
1:44 PM 59.0 °F 57.2 °F 94% 28.83 in 1.5 mi NE 34.5 mph 49.5 mph 0.05 in   Overcast
1:53 PM 59.0 °F 57.0 °F 93% 28.83 in 1.5 mi NE 39.1 mph 58.7 mph 0.05 in   Overcast
2:53 PM 59.0 °F 57.9 °F 96% 28.74 in 1.0 mi NE 34.5 mph 52.9 mph 0.09 in Rain Rain
3:49 PM 60.8 °F 59.0 °F 94% 28.64 in 1.2 mi NE 28.8 mph 50.6 mph 0.22 in Rain Rain
3:53 PM 61.0 °F 59.0 °F 93% 28.63 in 1.5 mi NE 32.2 mph 52.9 mph 0.22 in Rain Rain
4:53 PM 63.0 °F 61.0 °F 93% 28.55 in 1.5 mi ENE 31.1 mph 50.6 mph 0.04 in Rain Light Rain
5:11 PM 64.4 °F 60.8 °F 88% 28.54 in 3.0 mi ENE 28.8 mph 49.5 mph 0.01 in Rain Light Rain
5:14 PM 64.4 °F 60.8 °F 88% 28.53 in 3.0 mi North - - 0.01 in Rain Light Rain
5:26 PM 62.6 °F 60.8 °F 94% 28.53 in 1.8 mi East 35.7 mph 58.7 mph 0.01 in Rain Light Rain
5:44 PM 62.6 °F 60.8 °F 94% 28.54 in 2.5 mi East 36.8 mph 57.5 mph 0.01 in Rain Light Rain
5:53 PM 62.1 °F 60.1 °F 93% 28.54 in 2.0 mi East 36.8 mph 56.4 mph 0.01 in Rain Light Rain
6:39 PM 60.8 °F 57.2 °F 88% 28.59 in 5.0 mi East 44.9 mph 64.4 mph 0.00 in   Overcast
6:53 PM 60.1 °F 55.9 °F 86% 28.61 in 3.0 mi East 42.6 mph 67.9 mph 0.00 in Rain Light Rain
7:04 PM 60.8 °F 55.4 °F 82% 28.63 in 4.0 mi East 35.7 mph 71.3 mph 0.00 in Rain Light Rain
7:53 PM 60.1 °F 54.0 °F 80% 28.71 in 6.0 mi ESE 39.1 mph 70.2 mph 0.00 in   Haze
8:53 PM 60.1 °F 53.1 °F 78% 28.80 in 6.0 mi ESE 40.3 mph 61.0 mph N/A   Haze
9:53 PM 59.0 °F 51.1 °F 75% 28.90 in 7.0 mi SE 43.7 mph 52.9 mph N/A   Overcast
10:03 PM 59.0 °F 51.8 °F 77% 28.91 in 8.0 mi SE 38.0 mph 55.2 mph N/A   Overcast
10:28 PM 57.2 °F 50.0 °F 77% 28.95 in 7.0 mi SE 33.4 mph 50.6 mph N/A   Overcast
10:53 PM 57.0 °F 52.0 °F 83% 28.97 in 6.0 mi SE 27.6 mph 42.6 mph 0.00 in Rain Light Rain
11:53 PM 55.0 °F 50.0 °F 83% 29.04 in 7.0 mi SSE 39.1 mph 49.5 mph 0.02 in   Overcast